Baltimore, Maryland
Traffic Map
Current Weather Conditions
Baltimore, Maryland
Overcast
Overcast
19°
Feels Like: 19°
Wind Chill: 19° Ceiling: 8000
Heat Index: 19° Visibility: 10mi
Dew Point: 16° Wind: 3mph
Humidity: 79% Direction: 310° (NW)
Pressure: 29.92in Gusts: 0mph
Raw Report DataKBWI 240854Z 31003KT 10SM OVC080 19/16 A2992 RMK AO2 SLP130 T01940156 53006
Traffic Incident Summary
Active as of:
Severity:
Category:
InformationThere was an issue retrieving the traffic information for this location. Please try a different location or try again shortly.
Advertisements